Magnolia — WDB7135 — position and weather

sailwx.info

Track history (hours):
 
Tides and Currents Weather Stations Pressure Air Temp Water Temp Dewpoint Dewpoint Depression Visibility Wind Speed Wind Dir Waves Ship Positions

Magnolia

Owner: Magnolia Marine Transport Co, Vicksburg, MS. More information available from US FCC via Universal Licensing System and Coast Guard Vessel Documentation Center.

Last reported at 2016-Jan-30 14:04 UTC. Time now 2016-Feb-06 07:13 UTC.
Position N 32°05' W 091°05'.

Length 33 m; draft 2.7 m.

Type: Towing. MMSI: 366936980.

Date/timePositionNaut miles runAvg speedWind from/ knotsBaromVisibWave heightAir tempDewpointWater temp
2016-Jan-30 14:04N 32°05' W 091°05'3 4.5
2016-Jan-30 13:19N 32°07' W 091°02'7 9.5
2016-Jan-30 12:34N 32°14' W 090°59'5 5.3
2016-Jan-30 11:34N 32°18' W 090°55'0 0.0
2016-Jan-30 10:34N 32°18' W 090°55'0 0.0
2016-Jan-30 09:34N 32°18' W 090°55'0 0.0
2016-Jan-30 08:34N 32°18' W 090°55'0 0.0
2016-Jan-30 07:33N 32°18' W 090°55'0 0.0
2016-Jan-30 06:34N 32°18' W 090°55'0 0.0
2016-Jan-30 05:34N 32°18' W 090°55'0 0.0
2016-Jan-30 04:34N 32°18' W 090°55'0 0.0
2016-Jan-30 03:33N 32°18' W 090°55'0 0.0
2016-Jan-30 02:34N 32°18' W 090°55'0 0.0
2016-Jan-30 01:33N 32°18' W 090°55'0 0.0
2016-Jan-30 00:34N 32°18' W 090°55'0 0.0
2016-Jan-29 23:33N 32°18' W 090°55'0 0.0
2016-Jan-29 22:34N 32°18' W 090°55'0 0.0
2016-Jan-29 21:34N 32°18' W 090°55'0 0.0
2016-Jan-29 20:34N 32°18' W 090°55'1 0.9
2016-Jan-29 19:34N 32°19' W 090°54'6 6.5
2016-Jan-29 18:34N 32°23' W 090°60'12 8.0
2016-Jan-29 17:06N 32°34' W 091°06'  
Track history (hours):
 
Tides and Currents Weather Stations Pressure Air Temp Water Temp Dewpoint Dewpoint Depression Visibility Wind Speed Wind Dir Waves Ship Positions

Magnolia

Owner: Magnolia Marine Transport Co, Vicksburg, MS. More information available from US FCC via Universal Licensing System and Coast Guard Vessel Documentation Center.

Last reported at 2016-Jan-30 14:04 UTC. Time now 2016-Feb-06 07:13 UTC.
Position N 32°05' W 091°05'.

Length 33 m; draft 2.7 m.

Type: Towing. MMSI: 366936980.

Date/timePositionNaut miles runAvg speedWind from/ knotsBaromVisibWave heightAir tempDewpointWater temp
2016-Jan-30 14:04N 32°05' W 091°05'3 4.5
2016-Jan-30 13:19N 32°07' W 091°02'7 9.5
2016-Jan-30 12:34N 32°14' W 090°59'5 5.3
2016-Jan-30 11:34N 32°18' W 090°55'0 0.0
2016-Jan-30 10:34N 32°18' W 090°55'0 0.0
2016-Jan-30 09:34N 32°18' W 090°55'0 0.0
2016-Jan-30 08:34N 32°18' W 090°55'0 0.0
2016-Jan-30 07:33N 32°18' W 090°55'0 0.0
2016-Jan-30 06:34N 32°18' W 090°55'0 0.0
2016-Jan-30 05:34N 32°18' W 090°55'0 0.0
2016-Jan-30 04:34N 32°18' W 090°55'0 0.0
2016-Jan-30 03:33N 32°18' W 090°55'0 0.0
2016-Jan-30 02:34N 32°18' W 090°55'0 0.0
2016-Jan-30 01:33N 32°18' W 090°55'0 0.0
2016-Jan-30 00:34N 32°18' W 090°55'0 0.0
2016-Jan-29 23:33N 32°18' W 090°55'0 0.0
2016-Jan-29 22:34N 32°18' W 090°55'0 0.0
2016-Jan-29 21:34N 32°18' W 090°55'0 0.0
2016-Jan-29 20:34N 32°18' W 090°55'1 0.9
2016-Jan-29 19:34N 32°19' W 090°54'6 6.5
2016-Jan-29 18:34N 32°23' W 090°60'12 8.0
2016-Jan-29 17:06N 32°34' W 091°06'  

Dump ship's entire track history